Terminal Aerodrome Forecast
Issued by NWS

Home | Current Version | Previous Version | Text Only | Print | Product List | Glossary On
Versions: 1 2 3 4 5 6 7 8 9 10 11 12 13 14 15 16 17 18 19 20 21 22 23 24 25 26 27 28 29 30 31 32 33 34 35 36 37 38 39 40 41 42
000
FTUS45 KLKN 210017 AAA
TAFWMC
TAF AMD
KWMC 210017Z 2100/2124 17015KT 5SM -RA BR SCT010 OVC030
     FM210700 20007KT P6SM VCSH SCT020 OVC030
     FM211900 22012G22KT P6SM OVC040=

USA.gov is the U.S. government's official web portal to all federal, state and local government web resources and services.